sensor_id;sensor_type;location;lat;lon;timestamp;temperature;humidity
62464;SHT31;48512;48.552;9.380;2023-08-30T00:00:42;13.24;94.95
62464;SHT31;48512;48.552;9.380;2023-08-30T00:03:08;13.38;94.45
62464;SHT31;48512;48.552;9.380;2023-08-30T00:05:38;13.33;94.82
62464;SHT31;48512;48.552;9.380;2023-08-30T00:08:05;13.36;94.88
62464;SHT31;48512;48.552;9.380;2023-08-30T00:10:32;13.31;94.84
62464;SHT31;48512;48.552;9.380;2023-08-30T00:12:58;13.34;95.10
62464;SHT31;48512;48.552;9.380;2023-08-30T00:15:24;13.37;95.13
62464;SHT31;48512;48.552;9.380;2023-08-30T00:17:51;13.40;94.85
62464;SHT31;48512;48.552;9.380;2023-08-30T00:20:20;13.37;95.19
62464;SHT31;48512;48.552;9.380;2023-08-30T00:22:47;13.34;95.23
62464;SHT31;48512;48.552;9.380;2023-08-30T00:25:15;13.31;95.31
62464;SHT31;48512;48.552;9.380;2023-08-30T00:27:42;13.28;95.16
62464;SHT31;48512;48.552;9.380;2023-08-30T00:30:09;13.24;95.31
62464;SHT31;48512;48.552;9.380;2023-08-30T00:32:35;13.17;95.65
62464;SHT31;48512;48.552;9.380;2023-08-30T00:35:02;13.21;95.73
62464;SHT31;48512;48.552;9.380;2023-08-30T00:37:28;13.18;95.68
62464;SHT31;48512;48.552;9.380;2023-08-30T00:39:54;13.27;95.67
62464;SHT31;48512;48.552;9.380;2023-08-30T00:42:20;13.27;95.67
62464;SHT31;48512;48.552;9.380;2023-08-30T00:44:46;13.21;95.69
62464;SHT31;48512;48.552;9.380;2023-08-30T00:47:12;13.18;95.91
62464;SHT31;48512;48.552;9.380;2023-08-30T00:49:40;13.17;95.91
62464;SHT31;48512;48.552;9.380;2023-08-30T00:52:09;13.16;95.92
62464;SHT31;48512;48.552;9.380;2023-08-30T00:54:36;13.07;96.10
62464;SHT31;48512;48.552;9.380;2023-08-30T00:57:02;13.06;96.05
62464;SHT31;48512;48.552;9.380;2023-08-30T00:59:29;13.09;95.78
62464;SHT31;48512;48.552;9.380;2023-08-30T01:01:57;13.17;95.32
62464;SHT31;48512;48.552;9.380;2023-08-30T01:04:24;13.17;95.24
62464;SHT31;48512;48.552;9.380;2023-08-30T01:06:51;13.24;95.13
62464;SHT31;48512;48.552;9.380;2023-08-30T01:09:18;13.21;95.04
62464;SHT31;48512;48.552;9.380;2023-08-30T01:14:38;13.21;95.15
62464;SHT31;48512;48.552;9.380;2023-08-30T01:17:07;13.23;94.99
62464;SHT31;48512;48.552;9.380;2023-08-30T01:19:59;13.04;95.30
62464;SHT31;48512;48.552;9.380;2023-08-30T01:22:59;13.03;95.56
62464;SHT31;48512;48.552;9.380;2023-08-30T01:25:52;12.99;95.41
62464;SHT31;48512;48.552;9.380;2023-08-30T01:28:22;12.95;95.50
62464;SHT31;48512;48.552;9.380;2023-08-30T01:30:52;12.99;95.48
62464;SHT31;48512;48.552;9.380;2023-08-30T01:33:24;13.00;95.42
62464;SHT31;48512;48.552;9.380;2023-08-30T01:35:57;12.92;95.57
62464;SHT31;48512;48.552;9.380;2023-08-30T01:38:26;12.86;95.86
62464;SHT31;48512;48.552;9.380;2023-08-30T01:40:56;12.88;95.67
62464;SHT31;48512;48.552;9.380;2023-08-30T01:43:26;12.83;95.76
62464;SHT31;48512;48.552;9.380;2023-08-30T01:45:53;12.88;95.62
62464;SHT31;48512;48.552;9.380;2023-08-30T01:48:23;12.83;95.70
62464;SHT31;48512;48.552;9.380;2023-08-30T01:50:50;12.72;96.02
62464;SHT31;48512;48.552;9.380;2023-08-30T01:53:16;12.78;95.93
62464;SHT31;48512;48.552;9.380;2023-08-30T01:55:43;12.72;95.93
62464;SHT31;48512;48.552;9.380;2023-08-30T01:58:09;12.69;96.03
62464;SHT31;48512;48.552;9.380;2023-08-30T02:00:36;12.65;96.07
62464;SHT31;48512;48.552;9.380;2023-08-30T02:03:13;12.65;95.99
62464;SHT31;48512;48.552;9.380;2023-08-30T02:06:13;12.62;96.08
62464;SHT31;48512;48.552;9.380;2023-08-30T02:09:01;12.58;96.18
62464;SHT31;48512;48.552;9.380;2023-08-30T02:11:28;12.58;96.17
62464;SHT31;48512;48.552;9.380;2023-08-30T02:13:58;12.59;96.16
62464;SHT31;48512;48.552;9.380;2023-08-30T02:16:25;12.66;95.78
62464;SHT31;48512;48.552;9.380;2023-08-30T02:18:53;12.66;95.83
62464;SHT31;48512;48.552;9.380;2023-08-30T02:21:19;12.70;95.72
62464;SHT31;48512;48.552;9.380;2023-08-30T02:23:51;12.62;95.90
62464;SHT31;48512;48.552;9.380;2023-08-30T02:26:19;12.58;95.90
62464;SHT31;48512;48.552;9.380;2023-08-30T02:28:46;12.52;96.01
62464;SHT31;48512;48.552;9.380;2023-08-30T02:31:13;12.55;95.99
62464;SHT31;48512;48.552;9.380;2023-08-30T02:33:39;12.48;96.24
62464;SHT31;48512;48.552;9.380;2023-08-30T02:36:05;12.44;96.61
62464;SHT31;48512;48.552;9.380;2023-08-30T02:38:31;12.46;96.76
62464;SHT31;48512;48.552;9.380;2023-08-30T02:40:57;12.49;96.43
62464;SHT31;48512;48.552;9.380;2023-08-30T02:43:24;12.48;96.49
62464;SHT31;48512;48.552;9.380;2023-08-30T02:45:51;12.51;96.49
62464;SHT31;48512;48.552;9.380;2023-08-30T02:48:18;12.42;96.68
62464;SHT31;48512;48.552;9.380;2023-08-30T02:50:44;12.42;96.71
62464;SHT31;48512;48.552;9.380;2023-08-30T02:53:10;12.48;96.54
62464;SHT31;48512;48.552;9.380;2023-08-30T02:55:36;12.46;96.73
62464;SHT31;48512;48.552;9.380;2023-08-30T02:58:03;12.59;96.59
62464;SHT31;48512;48.552;9.380;2023-08-30T03:00:29;12.63;96.60
62464;SHT31;48512;48.552;9.380;2023-08-30T03:02:56;12.69;96.59
62464;SHT31;48512;48.552;9.380;2023-08-30T03:05:22;12.65;96.68
62464;SHT31;48512;48.552;9.380;2023-08-30T03:07:49;12.69;96.63
62464;SHT31;48512;48.552;9.380;2023-08-30T03:10:17;12.92;95.93
62464;SHT31;48512;48.552;9.380;2023-08-30T03:12:43;12.96;95.59
62464;SHT31;48512;48.552;9.380;2023-08-30T03:15:10;12.95;95.70
62464;SHT31;48512;48.552;9.380;2023-08-30T03:17:36;12.99;95.83
62464;SHT31;48512;48.552;9.380;2023-08-30T03:20:03;13.02;95.76
62464;SHT31;48512;48.552;9.380;2023-08-30T03:22:30;13.03;95.85
62464;SHT31;48512;48.552;9.380;2023-08-30T03:24:57;12.90;95.87
62464;SHT31;48512;48.552;9.380;2023-08-30T03:27:23;12.88;95.99
62464;SHT31;48512;48.552;9.380;2023-08-30T03:29:49;12.90;95.88
62464;SHT31;48512;48.552;9.380;2023-08-30T03:32:16;12.99;95.66
62464;SHT31;48512;48.552;9.380;2023-08-30T03:34:47;12.83;96.00
62464;SHT31;48512;48.552;9.380;2023-08-30T03:37:16;12.76;96.35
62464;SHT31;48512;48.552;9.380;2023-08-30T03:39:43;12.82;96.30
62464;SHT31;48512;48.552;9.380;2023-08-30T03:42:09;12.78;96.44
62464;SHT31;48512;48.552;9.380;2023-08-30T03:44:37;12.76;96.40
62464;SHT31;48512;48.552;9.380;2023-08-30T03:47:04;12.73;96.44
62464;SHT31;48512;48.552;9.380;2023-08-30T03:49:31;12.72;96.63
62464;SHT31;48512;48.552;9.380;2023-08-30T03:51:57;12.73;96.63
62464;SHT31;48512;48.552;9.380;2023-08-30T03:54:23;12.70;96.77
62464;SHT31;48512;48.552;9.380;2023-08-30T03:56:49;12.69;96.90
62464;SHT31;48512;48.552;9.380;2023-08-30T03:59:15;12.68;96.89
62464;SHT31;48512;48.552;9.380;2023-08-30T04:01:41;12.82;96.60
62464;SHT31;48512;48.552;9.380;2023-08-30T04:04:07;12.80;96.42
62464;SHT31;48512;48.552;9.380;2023-08-30T04:06:33;12.80;96.17
62464;SHT31;48512;48.552;9.380;2023-08-30T04:09:00;12.73;96.19
62464;SHT31;48512;48.552;9.380;2023-08-30T04:11:26;12.75;96.10
62464;SHT31;48512;48.552;9.380;2023-08-30T04:13:52;12.79;95.96
62464;SHT31;48512;48.552;9.380;2023-08-30T04:16:19;12.85;95.79
62464;SHT31;48512;48.552;9.380;2023-08-30T04:18:45;12.90;95.85
62464;SHT31;48512;48.552;9.380;2023-08-30T04:21:11;12.89;95.84
62464;SHT31;48512;48.552;9.380;2023-08-30T04:23:37;12.85;95.91
62464;SHT31;48512;48.552;9.380;2023-08-30T04:26:04;12.79;96.12
62464;SHT31;48512;48.552;9.380;2023-08-30T04:28:30;12.79;96.17
62464;SHT31;48512;48.552;9.380;2023-08-30T04:30:57;12.73;96.24
62464;SHT31;48512;48.552;9.380;2023-08-30T04:33:23;12.70;96.44
62464;SHT31;48512;48.552;9.380;2023-08-30T04:35:51;12.70;96.62
62464;SHT31;48512;48.552;9.380;2023-08-30T04:38:17;12.69;96.66
62464;SHT31;48512;48.552;9.380;2023-08-30T04:40:43;12.75;96.59
62464;SHT31;48512;48.552;9.380;2023-08-30T04:43:09;12.70;96.42
62464;SHT31;48512;48.552;9.380;2023-08-30T04:45:35;12.73;96.41
62464;SHT31;48512;48.552;9.380;2023-08-30T04:48:05;12.80;96.06
62464;SHT31;48512;48.552;9.380;2023-08-30T04:50:31;12.83;95.28
62464;SHT31;48512;48.552;9.380;2023-08-30T04:52:58;12.82;94.92
62464;SHT31;48512;48.552;9.380;2023-08-30T04:55:24;12.75;95.09
62464;SHT31;48512;48.552;9.380;2023-08-30T04:57:51;12.75;95.20
62464;SHT31;48512;48.552;9.380;2023-08-30T05:00:18;12.69;95.16
62464;SHT31;48512;48.552;9.380;2023-08-30T05:02:45;12.69;95.28
62464;SHT31;48512;48.552;9.380;2023-08-30T05:05:13;12.69;95.25
62464;SHT31;48512;48.552;9.380;2023-08-30T05:07:40;12.66;95.36
62464;SHT31;48512;48.552;9.380;2023-08-30T05:10:07;12.68;95.35
62464;SHT31;48512;48.552;9.380;2023-08-30T05:12:36;12.66;95.17
62464;SHT31;48512;48.552;9.380;2023-08-30T05:15:02;12.59;95.18
62464;SHT31;48512;48.552;9.380;2023-08-30T05:17:31;12.58;94.98
62464;SHT31;48512;48.552;9.380;2023-08-30T05:19:58;12.68;94.81
62464;SHT31;48512;48.552;9.380;2023-08-30T05:22:24;12.79;94.49
62464;SHT31;48512;48.552;9.380;2023-08-30T05:24:50;12.70;94.65
62464;SHT31;48512;48.552;9.380;2023-08-30T05:27:16;12.76;94.74
62464;SHT31;48512;48.552;9.380;2023-08-30T05:29:44;12.69;95.03
62464;SHT31;48512;48.552;9.380;2023-08-30T05:32:10;12.62;95.15
62464;SHT31;48512;48.552;9.380;2023-08-30T05:34:51;12.66;94.75
62464;SHT31;48512;48.552;9.380;2023-08-30T05:37:35;12.66;95.11
62464;SHT31;48512;48.552;9.380;2023-08-30T05:40:18;12.65;95.26
62464;SHT31;48512;48.552;9.380;2023-08-30T05:42:44;12.69;95.16
62464;SHT31;48512;48.552;9.380;2023-08-30T05:45:11;12.78;94.96
62464;SHT31;48512;48.552;9.380;2023-08-30T05:47:37;12.78;94.95
62464;SHT31;48512;48.552;9.380;2023-08-30T05:50:03;12.80;94.59
62464;SHT31;48512;48.552;9.380;2023-08-30T05:52:30;12.85;94.42
62464;SHT31;48512;48.552;9.380;2023-08-30T05:54:56;12.86;94.22
62464;SHT31;48512;48.552;9.380;2023-08-30T05:57:22;12.97;94.28
62464;SHT31;48512;48.552;9.380;2023-08-30T05:59:49;12.96;94.28
62464;SHT31;48512;48.552;9.380;2023-08-30T06:02:15;13.00;94.37
62464;SHT31;48512;48.552;9.380;2023-08-30T06:04:42;13.03;94.49
62464;SHT31;48512;48.552;9.380;2023-08-30T06:07:08;13.07;94.58
62464;SHT31;48512;48.552;9.380;2023-08-30T06:09:34;13.11;94.78
62464;SHT31;48512;48.552;9.380;2023-08-30T06:12:00;13.20;94.41
62464;SHT31;48512;48.552;9.380;2023-08-30T06:14:26;13.30;94.13
62464;SHT31;48512;48.552;9.380;2023-08-30T06:16:52;13.36;93.99
62464;SHT31;48512;48.552;9.380;2023-08-30T06:19:18;13.45;93.85
62464;SHT31;48512;48.552;9.380;2023-08-30T06:21:44;13.59;93.26
62464;SHT31;48512;48.552;9.380;2023-08-30T06:24:11;13.65;92.75
62464;SHT31;48512;48.552;9.380;2023-08-30T06:26:37;13.71;92.38
62464;SHT31;48512;48.552;9.380;2023-08-30T06:29:03;13.82;92.41
62464;SHT31;48512;48.552;9.380;2023-08-30T06:31:29;13.99;92.00
62464;SHT31;48512;48.552;9.380;2023-08-30T06:33:55;13.99;91.60
62464;SHT31;48512;48.552;9.380;2023-08-30T06:36:21;14.17;91.12
62464;SHT31;48512;48.552;9.380;2023-08-30T06:38:49;14.27;91.03
62464;SHT31;48512;48.552;9.380;2023-08-30T06:41:15;14.33;91.40
62464;SHT31;48512;48.552;9.380;2023-08-30T06:43:41;14.54;90.44
62464;SHT31;48512;48.552;9.380;2023-08-30T06:46:08;14.54;89.91
62464;SHT31;48512;48.552;9.380;2023-08-30T06:48:34;14.48;90.79
62464;SHT31;48512;48.552;9.380;2023-08-30T06:51:00;14.61;90.33
62464;SHT31;48512;48.552;9.380;2023-08-30T06:53:26;14.58;90.92
62464;SHT31;48512;48.552;9.380;2023-08-30T06:55:59;14.64;90.28
62464;SHT31;48512;48.552;9.380;2023-08-30T06:58:26;14.69;90.34
62464;SHT31;48512;48.552;9.380;2023-08-30T07:00:53;14.77;89.56
62464;SHT31;48512;48.552;9.380;2023-08-30T07:03:19;14.84;90.17
62464;SHT31;48512;48.552;9.380;2023-08-30T07:05:45;14.92;90.28
62464;SHT31;48512;48.552;9.380;2023-08-30T07:08:14;15.05;89.58
62464;SHT31;48512;48.552;9.380;2023-08-30T07:10:40;15.15;88.35
62464;SHT31;48512;48.552;9.380;2023-08-30T07:13:06;15.16;86.97
62464;SHT31;48512;48.552;9.380;2023-08-30T07:15:36;15.39;86.29
62464;SHT31;48512;48.552;9.380;2023-08-30T07:18:02;15.37;86.16
62464;SHT31;48512;48.552;9.380;2023-08-30T07:20:29;15.46;86.47
62464;SHT31;48512;48.552;9.380;2023-08-30T07:22:55;15.46;86.20
62464;SHT31;48512;48.552;9.380;2023-08-30T07:25:21;15.51;86.40
62464;SHT31;48512;48.552;9.380;2023-08-30T07:27:47;15.61;86.87
62464;SHT31;48512;48.552;9.380;2023-08-30T07:30:14;15.73;86.65
62464;SHT31;48512;48.552;9.380;2023-08-30T07:32:40;15.80;87.39
62464;SHT31;48512;48.552;9.380;2023-08-30T07:35:06;15.77;85.15
62464;SHT31;48512;48.552;9.380;2023-08-30T07:37:34;16.28;87.19
62464;SHT31;48512;48.552;9.380;2023-08-30T07:40:01;16.52;85.48
62464;SHT31;48512;48.552;9.380;2023-08-30T07:42:30;16.94;84.85
62464;SHT31;48512;48.552;9.380;2023-08-30T07:44:56;17.24;83.83
62464;SHT31;48512;48.552;9.380;2023-08-30T07:47:22;17.26;81.78
62464;SHT31;48512;48.552;9.380;2023-08-30T07:49:48;17.34;82.01
62464;SHT31;48512;48.552;9.380;2023-08-30T07:52:18;17.28;81.01
62464;SHT31;48512;48.552;9.380;2023-08-30T07:54:44;17.04;81.61
62464;SHT31;48512;48.552;9.380;2023-08-30T07:57:10;16.91;82.18
62464;SHT31;48512;48.552;9.380;2023-08-30T07:59:36;17.15;81.93
62464;SHT31;48512;48.552;9.380;2023-08-30T08:02:04;17.19;80.86
62464;SHT31;48512;48.552;9.380;2023-08-30T08:04:32;17.32;80.27
62464;SHT31;48512;48.552;9.380;2023-08-30T08:06:58;17.39;79.16
62464;SHT31;48512;48.552;9.380;2023-08-30T08:09:24;17.50;79.47
62464;SHT31;48512;48.552;9.380;2023-08-30T08:11:51;17.29;78.68
62464;SHT31;48512;48.552;9.380;2023-08-30T08:14:17;17.34;78.40
62464;SHT31;48512;48.552;9.380;2023-08-30T08:16:43;17.26;82.41
62464;SHT31;48512;48.552;9.380;2023-08-30T08:19:09;17.31;82.31
62464;SHT31;48512;48.552;9.380;2023-08-30T08:21:35;17.35;81.26
62464;SHT31;48512;48.552;9.380;2023-08-30T08:24:01;17.40;80.35
62464;SHT31;48512;48.552;9.380;2023-08-30T08:26:28;17.57;79.88
62464;SHT31;48512;48.552;9.380;2023-08-30T08:28:54;17.59;77.39
62464;SHT31;48512;48.552;9.380;2023-08-30T08:31:21;17.65;77.49
62464;SHT31;48512;48.552;9.380;2023-08-30T08:33:51;17.47;77.01
62464;SHT31;48512;48.552;9.380;2023-08-30T08:36:17;17.35;77.36
62464;SHT31;48512;48.552;9.380;2023-08-30T08:38:43;17.34;77.97
62464;SHT31;48512;48.552;9.380;2023-08-30T08:41:12;17.67;78.22
62464;SHT31;48512;48.552;9.380;2023-08-30T08:43:41;17.89;77.54
62464;SHT31;48512;48.552;9.380;2023-08-30T08:46:09;17.91;77.62
62464;SHT31;48512;48.552;9.380;2023-08-30T08:48:39;18.01;77.55
62464;SHT31;48512;48.552;9.380;2023-08-30T08:51:06;18.02;76.16
62464;SHT31;48512;48.552;9.380;2023-08-30T08:53:33;18.00;76.43
62464;SHT31;48512;48.552;9.380;2023-08-30T08:56:00;18.28;75.33
62464;SHT31;48512;48.552;9.380;2023-08-30T08:58:28;18.37;75.32
62464;SHT31;48512;48.552;9.380;2023-08-30T09:00:54;18.38;75.55
62464;SHT31;48512;48.552;9.380;2023-08-30T09:03:21;18.65;72.61
62464;SHT31;48512;48.552;9.380;2023-08-30T09:05:48;18.66;72.68
62464;SHT31;48512;48.552;9.380;2023-08-30T09:08:15;18.67;73.95
62464;SHT31;48512;48.552;9.380;2023-08-30T09:10:41;18.46;73.01
62464;SHT31;48512;48.552;9.380;2023-08-30T09:13:08;18.37;73.31
62464;SHT31;48512;48.552;9.380;2023-08-30T09:15:35;18.45;76.37
62464;SHT31;48512;48.552;9.380;2023-08-30T09:18:03;18.77;75.69
62464;SHT31;48512;48.552;9.380;2023-08-30T09:20:29;18.93;73.95
62464;SHT31;48512;48.552;9.380;2023-08-30T09:22:55;19.15;73.40
62464;SHT31;48512;48.552;9.380;2023-08-30T09:25:25;19.27;72.05
62464;SHT31;48512;48.552;9.380;2023-08-30T09:27:58;19.27;72.65
62464;SHT31;48512;48.552;9.380;2023-08-30T09:30:26;19.58;70.41
62464;SHT31;48512;48.552;9.380;2023-08-30T09:32:52;19.47;71.21
62464;SHT31;48512;48.552;9.380;2023-08-30T09:35:18;19.48;72.01
62464;SHT31;48512;48.552;9.380;2023-08-30T09:37:45;19.61;70.72
62464;SHT31;48512;48.552;9.380;2023-08-30T09:40:11;19.35;72.35
62464;SHT31;48512;48.552;9.380;2023-08-30T09:42:41;19.39;72.02
62464;SHT31;48512;48.552;9.380;2023-08-30T09:45:18;19.66;71.37
62464;SHT31;48512;48.552;9.380;2023-08-30T09:47:51;19.69;71.43
62464;SHT31;48512;48.552;9.380;2023-08-30T09:50:18;19.97;71.29
62464;SHT31;48512;48.552;9.380;2023-08-30T09:52:49;20.14;70.65
62464;SHT31;48512;48.552;9.380;2023-08-30T09:55:15;20.26;70.08
62464;SHT31;48512;48.552;9.380;2023-08-30T09:57:42;20.43;68.93
62464;SHT31;48512;48.552;9.380;2023-08-30T10:00:11;20.33;66.85
62464;SHT31;48512;48.552;9.380;2023-08-30T10:02:41;20.30;69.39
62464;SHT31;48512;48.552;9.380;2023-08-30T10:05:08;20.31;69.03
62464;SHT31;48512;48.552;9.380;2023-08-30T10:07:36;20.37;68.79
62464;SHT31;48512;48.552;9.380;2023-08-30T10:10:03;20.27;68.80
62464;SHT31;48512;48.552;9.380;2023-08-30T10:12:33;20.54;69.41
62464;SHT31;48512;48.552;9.380;2023-08-30T10:14:59;20.63;68.09
62464;SHT31;48512;48.552;9.380;2023-08-30T10:17:32;20.98;67.03
62464;SHT31;48512;48.552;9.380;2023-08-30T10:19:59;20.72;67.01
62464;SHT31;48512;48.552;9.380;2023-08-30T10:22:28;20.92;65.72
62464;SHT31;48512;48.552;9.380;2023-08-30T10:24:59;20.85;66.56
62464;SHT31;48512;48.552;9.380;2023-08-30T10:27:26;20.91;69.34
62464;SHT31;48512;48.552;9.380;2023-08-30T10:29:54;21.10;68.28
62464;SHT31;48512;48.552;9.380;2023-08-30T10:32:21;21.10;68.66
62464;SHT31;48512;48.552;9.380;2023-08-30T10:34:49;21.18;68.34
62464;SHT31;48512;48.552;9.380;2023-08-30T10:37:15;21.24;66.72
62464;SHT31;48512;48.552;9.380;2023-08-30T10:39:43;21.27;66.95
62464;SHT31;48512;48.552;9.380;2023-08-30T10:42:09;21.27;66.33
62464;SHT31;48512;48.552;9.380;2023-08-30T10:45:01;21.73;65.10
62464;SHT31;48512;48.552;9.380;2023-08-30T10:47:31;21.75;64.27
62464;SHT31;48512;48.552;9.380;2023-08-30T10:49:59;21.94;64.26
62464;SHT31;48512;48.552;9.380;2023-08-30T10:52:27;22.02;62.39
62464;SHT31;48512;48.552;9.380;2023-08-30T10:55:08;22.18;62.82
62464;SHT31;48512;48.552;9.380;2023-08-30T10:57:34;22.01;62.49
62464;SHT31;48512;48.552;9.380;2023-08-30T11:02:34;22.04;63.29
62464;SHT31;48512;48.552;9.380;2023-08-30T11:05:00;22.19;62.74
62464;SHT31;48512;48.552;9.380;2023-08-30T11:07:28;22.40;61.76
62464;SHT31;48512;48.552;9.380;2023-08-30T11:09:55;22.61;60.43
62464;SHT31;48512;48.552;9.380;2023-08-30T11:12:21;23.16;60.44
62464;SHT31;48512;48.552;9.380;2023-08-30T11:14:49;23.33;59.27
62464;SHT31;48512;48.552;9.380;2023-08-30T11:17:18;23.66;58.87
62464;SHT31;48512;48.552;9.380;2023-08-30T11:19:45;23.53;60.19
62464;SHT31;48512;48.552;9.380;2023-08-30T11:22:15;23.86;59.11
62464;SHT31;48512;48.552;9.380;2023-08-30T11:24:47;23.80;56.20
62464;SHT31;48512;48.552;9.380;2023-08-30T11:27:13;23.57;56.48
62464;SHT31;48512;48.552;9.380;2023-08-30T11:29:41;23.83;56.23
62464;SHT31;48512;48.552;9.380;2023-08-30T11:32:08;23.11;55.77
62464;SHT31;48512;48.552;9.380;2023-08-30T11:34:34;23.25;56.87
62464;SHT31;48512;48.552;9.380;2023-08-30T11:37:00;23.56;57.04
62464;SHT31;48512;48.552;9.380;2023-08-30T11:39:28;23.42;57.76
62464;SHT31;48512;48.552;9.380;2023-08-30T11:41:55;23.52;57.93
62464;SHT31;48512;48.552;9.380;2023-08-30T11:44:28;23.62;56.10
62464;SHT31;48512;48.552;9.380;2023-08-30T11:47:00;23.57;57.09
62464;SHT31;48512;48.552;9.380;2023-08-30T11:49:29;24.05;57.27
62464;SHT31;48512;48.552;9.380;2023-08-30T11:51:56;24.01;56.81
62464;SHT31;48512;48.552;9.380;2023-08-30T11:54:24;24.52;56.73
62464;SHT31;48512;48.552;9.380;2023-08-30T11:56:50;24.75;56.10
62464;SHT31;48512;48.552;9.380;2023-08-30T11:59:20;25.03;53.94
62464;SHT31;48512;48.552;9.380;2023-08-30T12:01:52;25.26;54.08
62464;SHT31;48512;48.552;9.380;2023-08-30T12:04:18;24.75;54.55
62464;SHT31;48512;48.552;9.380;2023-08-30T12:06:53;24.44;55.90
62464;SHT31;48512;48.552;9.380;2023-08-30T12:09:20;24.11;56.24
62464;SHT31;48512;48.552;9.380;2023-08-30T12:11:49;24.14;55.58
62464;SHT31;48512;48.552;9.380;2023-08-30T12:14:15;25.14;53.75
62464;SHT31;48512;48.552;9.380;2023-08-30T12:16:43;24.70;54.31
62464;SHT31;48512;48.552;9.380;2023-08-30T12:19:10;24.47;53.60
62464;SHT31;48512;48.552;9.380;2023-08-30T12:21:43;25.28;52.89
62464;SHT31;48512;48.552;9.380;2023-08-30T12:24:10;25.03;52.40
62464;SHT31;48512;48.552;9.380;2023-08-30T12:26:36;25.03;52.90
62464;SHT31;48512;48.552;9.380;2023-08-30T12:29:06;24.51;52.34
62464;SHT31;48512;48.552;9.380;2023-08-30T12:31:33;24.28;51.12
62464;SHT31;48512;48.552;9.380;2023-08-30T12:33:59;23.98;50.58
62464;SHT31;48512;48.552;9.380;2023-08-30T12:36:25;24.38;51.54
62464;SHT31;48512;48.552;9.380;2023-08-30T12:38:51;24.55;50.59
62464;SHT31;48512;48.552;9.380;2023-08-30T12:41:18;24.84;51.28
62464;SHT31;48512;48.552;9.380;2023-08-30T12:43:44;24.68;51.17
62464;SHT31;48512;48.552;9.380;2023-08-30T12:46:10;24.55;51.91
62464;SHT31;48512;48.552;9.380;2023-08-30T12:48:36;25.27;50.94
62464;SHT31;48512;48.552;9.380;2023-08-30T12:51:03;25.39;50.19
62464;SHT31;48512;48.552;9.380;2023-08-30T12:53:29;25.10;49.82
62464;SHT31;48512;48.552;9.380;2023-08-30T12:55:55;24.49;50.86
62464;SHT31;48512;48.552;9.380;2023-08-30T12:58:21;24.01;52.63
62464;SHT31;48512;48.552;9.380;2023-08-30T13:00:47;24.05;54.05
62464;SHT31;48512;48.552;9.380;2023-08-30T13:03:13;23.66;54.38
62464;SHT31;48512;48.552;9.380;2023-08-30T13:05:39;23.52;55.39
62464;SHT31;48512;48.552;9.380;2023-08-30T13:08:05;23.35;55.47
62464;SHT31;48512;48.552;9.380;2023-08-30T13:10:32;23.28;56.30
62464;SHT31;48512;48.552;9.380;2023-08-30T13:12:58;23.57;55.38
62464;SHT31;48512;48.552;9.380;2023-08-30T13:15:24;23.21;56.01
62464;SHT31;48512;48.552;9.380;2023-08-30T13:17:50;23.42;55.48
62464;SHT31;48512;48.552;9.380;2023-08-30T13:20:18;23.53;55.05
62464;SHT31;48512;48.552;9.380;2023-08-30T13:22:45;23.60;55.09
62464;SHT31;48512;48.552;9.380;2023-08-30T13:25:11;23.07;55.78
62464;SHT31;48512;48.552;9.380;2023-08-30T13:27:37;24.01;54.37
62464;SHT31;48512;48.552;9.380;2023-08-30T13:30:04;24.96;53.51
62464;SHT31;48512;48.552;9.380;2023-08-30T13:32:30;24.94;53.01
62464;SHT31;48512;48.552;9.380;2023-08-30T13:34:56;25.27;53.19
62464;SHT31;48512;48.552;9.380;2023-08-30T13:37:23;25.76;51.28
62464;SHT31;48512;48.552;9.380;2023-08-30T13:39:50;25.09;51.52
62464;SHT31;48512;48.552;9.380;2023-08-30T13:42:16;24.25;52.18
62464;SHT31;48512;48.552;9.380;2023-08-30T13:44:42;24.20;52.95
62464;SHT31;48512;48.552;9.380;2023-08-30T13:47:09;24.17;53.89
62464;SHT31;48512;48.552;9.380;2023-08-30T13:49:35;24.38;54.56
62464;SHT31;48512;48.552;9.380;2023-08-30T13:52:02;23.97;54.23
62464;SHT31;48512;48.552;9.380;2023-08-30T13:54:28;23.81;54.53
62464;SHT31;48512;48.552;9.380;2023-08-30T13:56:57;23.77;54.05
62464;SHT31;48512;48.552;9.380;2023-08-30T13:59:24;23.88;53.72
62464;SHT31;48512;48.552;9.380;2023-08-30T14:01:50;24.20;54.91
62464;SHT31;48512;48.552;9.380;2023-08-30T14:04:16;24.08;54.26
62464;SHT31;48512;48.552;9.380;2023-08-30T14:06:42;24.53;53.64
62464;SHT31;48512;48.552;9.380;2023-08-30T14:09:08;25.58;53.82
62464;SHT31;48512;48.552;9.380;2023-08-30T14:11:35;26.33;52.05
62464;SHT31;48512;48.552;9.380;2023-08-30T14:14:02;25.23;51.14
62464;SHT31;48512;48.552;9.380;2023-08-30T14:16:28;25.49;52.22
62464;SHT31;48512;48.552;9.380;2023-08-30T14:18:54;25.93;51.14
62464;SHT31;48512;48.552;9.380;2023-08-30T14:21:20;26.13;51.00
62464;SHT31;48512;48.552;9.380;2023-08-30T14:23:46;26.68;47.89
62464;SHT31;48512;48.552;9.380;2023-08-30T14:26:13;26.52;47.74
62464;SHT31;48512;48.552;9.380;2023-08-30T14:28:39;25.71;49.90
62464;SHT31;48512;48.552;9.380;2023-08-30T14:31:10;25.41;50.70
62464;SHT31;48512;48.552;9.380;2023-08-30T14:33:37;26.12;51.39
62464;SHT31;48512;48.552;9.380;2023-08-30T14:36:08;25.83;51.65
62464;SHT31;48512;48.552;9.380;2023-08-30T14:38:34;25.30;49.60
62464;SHT31;48512;48.552;9.380;2023-08-30T14:41:03;25.16;50.01
62464;SHT31;48512;48.552;9.380;2023-08-30T14:43:29;25.71;48.87
62464;SHT31;48512;48.552;9.380;2023-08-30T14:46:03;25.54;48.96
62464;SHT31;48512;48.552;9.380;2023-08-30T14:48:29;25.31;49.71
62464;SHT31;48512;48.552;9.380;2023-08-30T14:50:58;25.21;49.99
62464;SHT31;48512;48.552;9.380;2023-08-30T14:53:24;25.04;48.42
62464;SHT31;48512;48.552;9.380;2023-08-30T14:55:50;24.10;50.24
62464;SHT31;48512;48.552;9.380;2023-08-30T14:58:17;24.17;51.60
62464;SHT31;48512;48.552;9.380;2023-08-30T15:00:43;23.98;52.27
62464;SHT31;48512;48.552;9.380;2023-08-30T15:03:10;23.98;53.21
62464;SHT31;48512;48.552;9.380;2023-08-30T15:05:36;23.96;52.22
62464;SHT31;48512;48.552;9.380;2023-08-30T15:08:02;23.94;51.73
62464;SHT31;48512;48.552;9.380;2023-08-30T15:10:29;24.01;52.50
62464;SHT31;48512;48.552;9.380;2023-08-30T15:12:55;23.93;52.66
62464;SHT31;48512;48.552;9.380;2023-08-30T15:15:21;23.71;52.41
62464;SHT31;48512;48.552;9.380;2023-08-30T15:17:47;23.70;52.25
62464;SHT31;48512;48.552;9.380;2023-08-30T15:20:13;23.59;52.43
62464;SHT31;48512;48.552;9.380;2023-08-30T15:22:40;23.42;53.97
62464;SHT31;48512;48.552;9.380;2023-08-30T15:25:06;23.43;53.99
62464;SHT31;48512;48.552;9.380;2023-08-30T15:27:35;23.32;51.22
62464;SHT31;48512;48.552;9.380;2023-08-30T15:30:02;23.12;53.65
62464;SHT31;48512;48.552;9.380;2023-08-30T15:32:30;23.12;55.40
62464;SHT31;48512;48.552;9.380;2023-08-30T15:34:57;23.05;57.38
62464;SHT31;48512;48.552;9.380;2023-08-30T15:37:23;22.78;58.96